createdAt,value
2018-07-04T00:00:10.876Z,15.50
2018-07-04T00:01:10.464Z,15.40
2018-07-04T00:02:05.787Z,15.40
2018-07-04T00:03:05.954Z,15.40
2018-07-04T00:04:05.740Z,15.40
2018-07-04T00:05:08.439Z,15.40
2018-07-04T00:06:10.937Z,15.40
2018-07-04T00:07:05.949Z,15.30
2018-07-04T00:08:05.451Z,15.30
2018-07-04T00:09:08.629Z,15.30
2018-07-04T00:10:05.023Z,15.30
2018-07-04T00:11:05.611Z,15.30
2018-07-04T00:12:05.170Z,15.30
2018-07-04T00:13:06.010Z,15.30
2018-07-04T00:14:06.213Z,15.20
2018-07-04T00:15:06.217Z,15.20
2018-07-04T00:16:10.952Z,15.20
2018-07-04T00:17:05.358Z,15.20
2018-07-04T00:18:05.912Z,15.20
2018-07-04T00:19:07.906Z,15.10
2018-07-04T00:20:05.705Z,15.10
2018-07-04T00:21:08.148Z,15.00
2018-07-04T00:22:05.650Z,15.10
2018-07-04T00:23:05.063Z,15.00
2018-07-04T00:24:08.203Z,15.00
2018-07-04T00:25:08.569Z,15.00
2018-07-04T00:26:06.089Z,15.00
2018-07-04T00:27:05.429Z,14.90
2018-07-04T00:28:05.709Z,14.90
2018-07-04T00:29:10.441Z,14.90
2018-07-04T00:30:05.932Z,14.90
2018-07-04T00:31:10.660Z,14.90
2018-07-04T00:32:10.781Z,14.90
2018-07-04T00:33:07.971Z,14.90
2018-07-04T00:34:05.560Z,14.90
2018-07-04T00:35:08.963Z,14.90
2018-07-04T00:36:05.381Z,14.80
2018-07-04T00:37:10.645Z,14.80
2018-07-04T00:38:05.640Z,14.80
2018-07-04T00:39:05.794Z,14.80
2018-07-04T00:40:05.327Z,14.80
2018-07-04T00:41:05.915Z,14.80
2018-07-04T00:42:05.468Z,14.80
2018-07-04T00:43:05.360Z,14.80
2018-07-04T00:44:06.266Z,14.80
2018-07-04T00:45:10.569Z,14.80
2018-07-04T00:46:06.390Z,14.70
2018-07-04T00:47:05.671Z,14.70
2018-07-04T00:48:05.695Z,14.70
2018-07-04T00:49:05.025Z,14.70
2018-07-04T00:50:06.046Z,14.60
2018-07-04T00:51:05.904Z,14.60
2018-07-04T00:52:05.411Z,14.50
2018-07-04T00:53:05.905Z,14.60
2018-07-04T00:54:06.238Z,14.60
2018-07-04T00:55:05.799Z,14.50
2018-07-04T00:56:10.908Z,14.50
2018-07-04T00:57:08.213Z,14.40
2018-07-04T00:58:05.677Z,14.40
2018-07-04T00:59:05.978Z,14.50
2018-07-04T01:00:05.794Z,14.40
2018-07-04T01:01:05.234Z,14.40
2018-07-04T01:02:06.056Z,14.40
2018-07-04T01:03:05.518Z,14.40
2018-07-04T01:04:06.307Z,14.40
2018-07-04T01:05:05.520Z,14.40
2018-07-04T01:06:10.621Z,14.30
2018-07-04T01:07:05.874Z,14.30
2018-07-04T01:08:05.225Z,14.30
2018-07-04T01:09:06.189Z,14.30
2018-07-04T01:10:08.460Z,14.20
2018-07-04T01:11:09.282Z,14.30
2018-07-04T01:12:05.782Z,14.20
2018-07-04T01:13:06.365Z,14.20
2018-07-04T01:14:08.605Z,14.20
2018-07-04T01:15:05.039Z,14.20
2018-07-04T01:16:05.624Z,14.20
2018-07-04T01:17:05.273Z,14.20
2018-07-04T01:18:06.037Z,14.10
2018-07-04T01:19:10.859Z,14.20
2018-07-04T01:20:06.310Z,14.10
2018-07-04T01:21:05.727Z,14.10
2018-07-04T01:22:05.880Z,14.10
2018-07-04T01:23:05.791Z,14.10
2018-07-04T01:24:05.211Z,14.10
2018-07-04T01:25:05.678Z,14.10
2018-07-04T01:26:08.087Z,14.10
2018-07-04T01:27:08.083Z,14.00
2018-07-04T01:28:05.467Z,14.00
2018-07-04T01:29:07.901Z,14.00
2018-07-04T01:30:08.224Z,14.00
2018-07-04T01:31:05.686Z,14.00
2018-07-04T01:32:05.699Z,14.00
2018-07-04T01:33:08.225Z,13.90
2018-07-04T01:34:08.166Z,13.90
2018-07-04T01:35:10.647Z,13.90
2018-07-04T01:36:10.763Z,13.90
2018-07-04T01:37:05.421Z,13.90
2018-07-04T01:38:06.111Z,13.90
2018-07-04T01:39:05.723Z,13.80
2018-07-04T01:40:05.272Z,13.80
2018-07-04T01:41:05.550Z,13.80
2018-07-04T01:42:05.759Z,13.80
2018-07-04T01:43:05.046Z,13.70
2018-07-04T01:44:10.610Z,13.70
2018-07-04T01:45:06.062Z,13.70
2018-07-04T01:46:06.017Z,13.70
2018-07-04T01:47:10.408Z,13.60
2018-07-04T01:48:05.363Z,13.60
2018-07-04T01:49:05.514Z,13.60
2018-07-04T01:50:06.049Z,13.60
2018-07-04T01:51:05.208Z,13.50
2018-07-04T01:52:08.800Z,13.50
2018-07-04T01:53:10.681Z,13.50
2018-07-04T01:54:06.004Z,13.50
2018-07-04T01:55:07.229Z,13.50
2018-07-04T01:56:05.383Z,13.50
2018-07-04T01:57:05.304Z,13.50
2018-07-04T01:58:05.366Z,13.50
2018-07-04T01:59:09.072Z,13.40
2018-07-04T02:00:05.849Z,13.40
2018-07-04T02:01:08.504Z,13.40
2018-07-04T02:02:05.879Z,13.30
2018-07-04T02:03:05.776Z,13.40
2018-07-04T02:04:08.279Z,13.40
2018-07-04T02:05:08.483Z,13.40
2018-07-04T02:06:05.982Z,13.40
2018-07-04T02:07:05.873Z,13.40
2018-07-04T02:08:10.406Z,13.30
2018-07-04T02:09:05.564Z,13.30
2018-07-04T02:10:08.760Z,13.30
2018-07-04T02:11:05.456Z,13.30
2018-07-04T02:12:10.802Z,13.30
2018-07-04T02:13:05.547Z,13.30
2018-07-04T02:14:05.466Z,13.30
2018-07-04T02:15:08.447Z,13.30
2018-07-04T02:16:11.058Z,13.20
2018-07-04T02:17:10.352Z,13.20
2018-07-04T02:18:05.509Z,13.20
2018-07-04T02:19:05.863Z,13.20
2018-07-04T02:20:10.255Z,13.10
2018-07-04T02:21:13.352Z,13.10
2018-07-04T02:22:05.810Z,13.10
2018-07-04T02:23:06.416Z,13.10
2018-07-04T02:24:06.320Z,13.10
2018-07-04T02:25:05.118Z,13.00
2018-07-04T02:26:05.683Z,13.00
2018-07-04T02:27:08.167Z,13.00
2018-07-04T02:28:05.656Z,13.00
2018-07-04T02:29:05.951Z,13.00
2018-07-04T02:30:05.433Z,13.00
2018-07-04T02:31:05.897Z,13.00
2018-07-04T02:32:10.640Z,12.90
2018-07-04T02:33:10.137Z,12.90
2018-07-04T02:34:10.352Z,12.90
2018-07-04T02:35:08.910Z,12.90
2018-07-04T02:36:05.784Z,12.90
2018-07-04T02:37:10.968Z,12.90
2018-07-04T02:38:05.652Z,12.90
2018-07-04T02:39:05.643Z,12.90
2018-07-04T02:40:05.014Z,12.90
2018-07-04T02:41:05.307Z,12.90
2018-07-04T02:42:07.805Z,12.90
2018-07-04T02:43:08.494Z,12.90
2018-07-04T02:44:05.954Z,12.90
2018-07-04T02:45:05.559Z,12.90
2018-07-04T02:46:05.616Z,12.90
2018-07-04T02:47:05.896Z,0.00
2018-07-04T02:48:05.982Z,12.90
2018-07-04T02:49:05.903Z,12.90
2018-07-04T02:50:08.041Z,12.90
2018-07-04T02:51:10.476Z,12.90
2018-07-04T02:52:05.548Z,12.80
2018-07-04T02:53:08.402Z,12.90
2018-07-04T02:54:06.274Z,12.90
2018-07-04T02:55:05.889Z,12.90
2018-07-04T02:56:05.937Z,12.90
2018-07-04T02:57:05.540Z,12.80
2018-07-04T02:58:05.678Z,12.80
2018-07-04T02:59:08.527Z,12.80
2018-07-04T03:00:08.534Z,12.80
2018-07-04T03:01:09.828Z,12.70
2018-07-04T03:02:06.224Z,12.80
2018-07-04T03:03:06.430Z,12.70
2018-07-04T03:04:05.915Z,12.70
2018-07-04T03:05:05.654Z,12.70
2018-07-04T03:06:08.568Z,12.70
2018-07-04T03:07:06.004Z,12.60
2018-07-04T03:08:10.822Z,12.60
2018-07-04T03:09:05.857Z,12.70
2018-07-04T03:10:05.278Z,12.60
2018-07-04T03:11:08.544Z,12.60
2018-07-04T03:12:05.948Z,12.60
2018-07-04T03:13:05.940Z,12.60
2018-07-04T03:14:05.231Z,12.60
2018-07-04T03:15:05.752Z,12.70
2018-07-04T03:16:07.954Z,12.60
2018-07-04T03:17:05.968Z,12.60
2018-07-04T03:18:08.174Z,12.70
2018-07-04T03:19:09.081Z,12.60
2018-07-04T03:20:08.086Z,12.70
2018-07-04T03:21:10.634Z,12.60
2018-07-04T03:22:08.701Z,12.60
2018-07-04T03:23:05.133Z,12.60
2018-07-04T03:24:05.536Z,12.70
2018-07-04T03:25:05.227Z,12.60
2018-07-04T03:26:05.267Z,12.60
2018-07-04T03:27:05.765Z,12.60
2018-07-04T03:28:05.930Z,12.60
2018-07-04T03:29:10.999Z,12.60
2018-07-04T03:30:05.134Z,12.70
2018-07-04T03:31:05.399Z,12.60
2018-07-04T03:32:08.374Z,12.60
2018-07-04T03:33:10.897Z,12.70
2018-07-04T03:34:05.383Z,12.70
2018-07-04T03:35:05.841Z,12.70
2018-07-04T03:36:05.043Z,12.70
2018-07-04T03:37:05.923Z,12.70
2018-07-04T03:38:05.819Z,12.70
2018-07-04T03:39:05.256Z,12.70
2018-07-04T03:40:05.311Z,12.80
2018-07-04T03:41:05.739Z,12.70
2018-07-04T03:42:10.413Z,12.80
2018-07-04T03:43:05.895Z,12.80
2018-07-04T03:44:10.573Z,12.80
2018-07-04T03:45:06.027Z,12.90
2018-07-04T03:46:05.645Z,12.90
2018-07-04T03:47:05.148Z,12.90
2018-07-04T03:48:05.130Z,13.00
2018-07-04T03:49:05.483Z,13.10
2018-07-04T03:50:10.290Z,13.20
2018-07-04T03:51:05.605Z,13.20
2018-07-04T03:52:05.617Z,13.30
2018-07-04T03:53:06.126Z,13.30
2018-07-04T03:54:10.730Z,13.40
2018-07-04T03:55:05.888Z,13.40
2018-07-04T03:56:06.067Z,13.50
2018-07-04T03:57:05.222Z,13.60
2018-07-04T03:58:05.378Z,13.60
2018-07-04T03:59:10.472Z,13.90
2018-07-04T04:00:05.831Z,13.90
2018-07-04T04:01:10.531Z,14.00
2018-07-04T04:02:12.843Z,14.40
2018-07-04T04:03:07.772Z,14.50
2018-07-04T04:04:08.748Z,14.70
2018-07-04T04:05:10.369Z,14.90
2018-07-04T04:06:05.864Z,14.90
2018-07-04T04:07:05.387Z,15.10
2018-07-04T04:08:05.670Z,15.30
2018-07-04T04:09:05.183Z,15.50
2018-07-04T04:10:10.357Z,15.80
2018-07-04T04:11:07.982Z,16.00
2018-07-04T04:12:05.746Z,16.00
2018-07-04T04:13:08.454Z,16.30
2018-07-04T04:14:06.231Z,16.30
2018-07-04T04:15:05.220Z,16.40
2018-07-04T04:16:05.329Z,16.50
2018-07-04T04:17:08.356Z,16.80
2018-07-04T04:18:05.752Z,16.80
2018-07-04T04:19:05.923Z,17.00
2018-07-04T04:20:10.575Z,17.20
2018-07-04T04:21:10.608Z,17.30
2018-07-04T04:22:06.109Z,17.50
2018-07-04T04:23:10.845Z,17.60
2018-07-04T04:24:10.965Z,17.80
2018-07-04T04:25:05.750Z,18.00
2018-07-04T04:26:05.860Z,18.10
2018-07-04T04:27:05.659Z,18.30
2018-07-04T04:28:10.345Z,18.60
2018-07-04T04:29:07.976Z,18.70
2018-07-04T04:30:10.554Z,18.90
2018-07-04T04:31:05.914Z,18.90
2018-07-04T04:32:08.879Z,19.20
2018-07-04T04:33:05.477Z,19.10
2018-07-04T04:34:05.610Z,19.30
2018-07-04T04:35:08.529Z,19.50
2018-07-04T04:36:05.706Z,19.50
2018-07-04T04:37:05.869Z,19.70
2018-07-04T04:38:11.662Z,19.90
2018-07-04T04:39:05.707Z,19.90
2018-07-04T04:40:09.622Z,20.20
2018-07-04T04:41:05.298Z,20.20
2018-07-04T04:42:05.039Z,20.30
2018-07-04T04:43:06.394Z,20.50
2018-07-04T04:44:05.336Z,20.60
2018-07-04T04:45:05.379Z,20.70
2018-07-04T04:46:05.543Z,20.90
2018-07-04T04:47:05.307Z,21.10
2018-07-04T04:48:06.080Z,21.20
2018-07-04T04:49:05.927Z,21.30
2018-07-04T04:50:05.936Z,21.40
2018-07-04T04:51:06.038Z,21.50
2018-07-04T04:52:10.525Z,21.60
2018-07-04T04:53:05.712Z,21.70
2018-07-04T04:54:05.417Z,21.80
2018-07-04T04:55:05.765Z,21.80
2018-07-04T04:56:05.547Z,22.00
2018-07-04T04:57:05.763Z,22.10
2018-07-04T04:58:06.018Z,22.20
2018-07-04T04:59:05.264Z,22.30
2018-07-04T05:00:05.125Z,22.40
2018-07-04T05:01:09.131Z,22.50
2018-07-04T05:02:05.534Z,22.50
2018-07-04T05:03:05.541Z,22.60
2018-07-04T05:04:05.746Z,22.70
2018-07-04T05:05:05.626Z,22.70
2018-07-04T05:06:05.633Z,22.80
2018-07-04T05:07:11.126Z,22.90
2018-07-04T05:08:05.403Z,22.90
2018-07-04T05:09:10.920Z,23.10
2018-07-04T05:10:05.284Z,23.10
2018-07-04T05:11:05.698Z,23.20
2018-07-04T05:12:08.633Z,23.30
2018-07-04T05:13:05.979Z,23.30
2018-07-04T05:14:05.582Z,23.40
2018-07-04T05:15:05.869Z,23.40
2018-07-04T05:16:05.746Z,23.50
2018-07-04T05:17:08.521Z,23.50
2018-07-04T05:18:05.922Z,23.50
2018-07-04T05:19:06.010Z,23.60
2018-07-04T05:20:06.410Z,23.70
2018-07-04T05:21:08.553Z,23.80
2018-07-04T05:22:08.513Z,23.80
2018-07-04T05:23:05.876Z,23.80
2018-07-04T05:24:05.688Z,23.90
2018-07-04T05:25:05.604Z,24.00
2018-07-04T05:26:06.130Z,24.10
2018-07-04T05:27:05.155Z,24.10
2018-07-04T05:28:06.072Z,24.20
2018-07-04T05:29:10.417Z,24.30
2018-07-04T05:30:05.798Z,24.30
2018-07-04T05:31:08.296Z,24.40
2018-07-04T05:32:05.756Z,24.40
2018-07-04T05:33:05.691Z,24.40
2018-07-04T05:34:05.617Z,24.30
2018-07-04T05:35:11.059Z,24.30
2018-07-04T05:36:05.928Z,24.30
2018-07-04T05:37:06.024Z,24.30
2018-07-04T05:38:06.100Z,24.30
2018-07-04T05:39:08.198Z,24.40
2018-07-04T05:40:08.262Z,24.50
2018-07-04T05:41:10.748Z,24.50
2018-07-04T05:42:08.803Z,24.60
2018-07-04T05:43:05.342Z,24.60
2018-07-04T05:44:05.496Z,24.60
2018-07-04T05:45:05.403Z,24.60
2018-07-04T05:46:08.320Z,24.60
2018-07-04T05:47:08.415Z,24.70
2018-07-04T05:48:06.160Z,24.70
2018-07-04T05:49:05.384Z,24.70
2018-07-04T05:50:05.468Z,24.80
2018-07-04T05:51:05.849Z,24.90
2018-07-04T05:52:07.956Z,25.00
2018-07-04T05:53:10.571Z,25.10
2018-07-04T05:54:06.131Z,25.10
2018-07-04T05:55:10.812Z,25.20
2018-07-04T05:56:10.994Z,25.20
2018-07-04T05:57:05.458Z,25.30
2018-07-04T05:58:11.045Z,25.40
2018-07-04T05:59:07.681Z,25.40
2018-07-04T06:00:08.009Z,25.40
2018-07-04T06:01:05.478Z,25.40
2018-07-04T06:02:05.553Z,25.50
2018-07-04T06:03:05.937Z,25.50
2018-07-04T06:04:05.387Z,25.50
2018-07-04T06:05:05.602Z,25.50
2018-07-04T06:06:06.243Z,25.60
2018-07-04T06:07:08.055Z,25.70
2018-07-04T06:08:13.060Z,25.70
2018-07-04T06:09:08.640Z,25.80
2018-07-04T06:10:05.707Z,25.70
2018-07-04T06:11:05.067Z,25.80
2018-07-04T06:12:07.791Z,25.90
2018-07-04T06:13:05.837Z,25.80
2018-07-04T06:14:08.870Z,26.00
2018-07-04T06:15:05.413Z,26.00
2018-07-04T06:16:11.134Z,26.00
2018-07-04T06:17:05.555Z,26.00
2018-07-04T06:18:05.745Z,26.00
2018-07-04T06:19:10.976Z,26.20
2018-07-04T06:20:05.689Z,26.20
2018-07-04T06:21:09.625Z,26.40
2018-07-04T06:22:10.189Z,26.40
2018-07-04T06:23:10.328Z,26.50
2018-07-04T06:24:08.131Z,26.60
2018-07-04T06:25:05.589Z,26.60
2018-07-04T06:26:05.610Z,26.70
2018-07-04T06:27:05.666Z,26.70
2018-07-04T06:28:05.284Z,26.80
2018-07-04T06:29:05.823Z,26.90
2018-07-04T06:30:06.093Z,26.90
2018-07-04T06:31:05.608Z,1.40
2018-07-04T06:32:06.150Z,27.00
2018-07-04T06:33:05.672Z,27.10
2018-07-04T06:34:10.123Z,27.20
2018-07-04T06:35:06.042Z,27.20
2018-07-04T06:36:05.657Z,27.30
2018-07-04T06:37:05.612Z,27.30
2018-07-04T06:38:05.076Z,27.40
2018-07-04T06:39:05.695Z,27.50
2018-07-04T06:40:05.209Z,27.50
2018-07-04T06:41:06.159Z,27.50
2018-07-04T06:42:05.624Z,27.60
2018-07-04T06:43:06.398Z,27.70
2018-07-04T06:44:10.924Z,27.80
2018-07-04T06:45:05.325Z,27.80
2018-07-04T06:46:05.796Z,27.90
2018-07-04T06:47:13.129Z,28.00
2018-07-04T06:48:08.344Z,28.10
2018-07-04T06:49:08.464Z,28.20
2018-07-04T06:50:06.610Z,28.20
2018-07-04T06:51:08.042Z,28.40
2018-07-04T06:52:05.471Z,28.30
2018-07-04T06:53:05.557Z,28.40
2018-07-04T06:54:10.545Z,28.50
2018-07-04T06:55:05.591Z,28.60
2018-07-04T06:56:05.929Z,28.60
2018-07-04T06:57:10.510Z,28.80
2018-07-04T06:58:05.201Z,28.80
2018-07-04T06:59:05.216Z,28.80
2018-07-04T07:00:10.896Z,28.90
2018-07-04T07:01:05.317Z,28.90
2018-07-04T07:02:11.046Z,28.90
2018-07-04T07:03:05.462Z,28.90
2018-07-04T07:04:05.857Z,28.90
2018-07-04T07:05:05.606Z,28.80
2018-07-04T07:06:05.809Z,28.80
2018-07-04T07:07:08.673Z,28.50
2018-07-04T07:08:05.090Z,28.50
2018-07-04T07:09:05.481Z,28.40
2018-07-04T07:10:05.687Z,28.20
2018-07-04T07:11:07.940Z,28.10
2018-07-04T07:12:05.395Z,28.10
2018-07-04T07:13:05.872Z,28.10
2018-07-04T07:14:08.900Z,28.00
2018-07-04T07:15:05.576Z,28.00
2018-07-04T07:16:05.950Z,28.00
2018-07-04T07:17:12.812Z,28.10
2018-07-04T07:18:05.161Z,28.10
2018-07-04T07:19:10.456Z,28.20
2018-07-04T07:20:08.391Z,28.20
2018-07-04T07:21:05.859Z,28.20
2018-07-04T07:22:05.575Z,28.20
2018-07-04T07:23:06.069Z,28.30
2018-07-04T07:24:05.682Z,28.40
2018-07-04T07:25:05.299Z,28.50
2018-07-04T07:26:10.659Z,28.60
2018-07-04T07:27:10.183Z,28.60
2018-07-04T07:28:05.510Z,28.60
2018-07-04T07:29:10.340Z,28.60
2018-07-04T07:30:05.387Z,28.60
2018-07-04T07:31:08.926Z,28.70
2018-07-04T07:32:05.914Z,28.60
2018-07-04T07:33:10.282Z,28.70
2018-07-04T07:34:05.718Z,28.70
2018-07-04T07:35:05.156Z,28.70
2018-07-04T07:36:06.307Z,28.70
2018-07-04T07:37:05.349Z,28.70
2018-07-04T07:38:10.107Z,28.70
2018-07-04T07:39:05.163Z,28.80
2018-07-04T07:40:05.475Z,28.70
2018-07-04T07:41:05.877Z,28.70
2018-07-04T07:42:10.472Z,28.70
2018-07-04T07:43:10.604Z,28.70
2018-07-04T07:44:05.826Z,28.70
2018-07-04T07:45:10.772Z,28.70
2018-07-04T07:46:08.929Z,28.70
2018-07-04T07:47:05.392Z,28.70
2018-07-04T07:48:09.506Z,28.70
2018-07-04T07:49:05.897Z,28.70
2018-07-04T07:50:05.382Z,28.60
2018-07-04T07:51:10.281Z,28.60
2018-07-04T07:52:10.573Z,28.70
2018-07-04T07:53:05.930Z,28.60
2018-07-04T07:54:08.296Z,28.60
2018-07-04T07:55:11.890Z,28.60
2018-07-04T07:56:05.263Z,28.60
2018-07-04T07:57:05.337Z,28.60
2018-07-04T07:58:09.417Z,28.70
2018-07-04T07:59:05.968Z,28.60
2018-07-04T08:00:08.302Z,28.70
2018-07-04T08:01:05.745Z,28.70
2018-07-04T08:02:06.008Z,28.70
2018-07-04T08:03:06.258Z,28.70
2018-07-04T08:04:05.675Z,28.60
2018-07-04T08:05:06.117Z,28.60
2018-07-04T08:06:05.685Z,28.60
2018-07-04T08:07:05.403Z,28.60
2018-07-04T08:08:05.850Z,28.60
2018-07-04T08:09:05.734Z,28.50
2018-07-04T08:10:05.924Z,28.50
2018-07-04T08:11:05.751Z,28.50
2018-07-04T08:12:08.089Z,28.50
2018-07-04T08:13:05.401Z,28.40
2018-07-04T08:14:06.044Z,28.40
2018-07-04T08:15:05.451Z,28.40
2018-07-04T08:16:06.424Z,28.40
2018-07-04T08:17:05.261Z,28.40
2018-07-04T08:18:06.068Z,28.40
2018-07-04T08:19:06.040Z,28.40
2018-07-04T08:20:11.012Z,28.30
2018-07-04T08:21:05.148Z,28.30
2018-07-04T08:22:06.024Z,28.30
2018-07-04T08:23:08.482Z,28.30
2018-07-04T08:24:08.943Z,28.20
2018-07-04T08:25:05.595Z,28.20
2018-07-04T08:26:10.279Z,28.20
2018-07-04T08:27:05.629Z,28.30
2018-07-04T08:28:05.330Z,28.20
2018-07-04T08:29:08.808Z,28.20
2018-07-04T08:30:08.377Z,28.20
2018-07-04T08:31:10.886Z,28.20
2018-07-04T08:32:06.469Z,28.20
2018-07-04T08:33:05.603Z,28.30
2018-07-04T08:34:05.744Z,28.30
2018-07-04T08:35:11.062Z,28.30
2018-07-04T08:36:08.086Z,28.30
2018-07-04T08:37:05.949Z,28.30
2018-07-04T08:38:10.562Z,28.40
2018-07-04T08:39:06.010Z,28.40
2018-07-04T08:40:05.159Z,28.40
2018-07-04T08:41:05.919Z,28.50
2018-07-04T08:42:05.031Z,28.50
2018-07-04T08:43:05.233Z,28.50
2018-07-04T08:44:10.280Z,28.60
2018-07-04T08:45:05.768Z,28.60
2018-07-04T08:46:05.855Z,28.70
2018-07-04T08:47:05.091Z,28.80
2018-07-04T08:48:05.627Z,28.80
2018-07-04T08:49:08.090Z,28.90
2018-07-04T08:50:08.082Z,28.90
2018-07-04T08:51:08.426Z,29.00
2018-07-04T08:52:05.952Z,29.00
2018-07-04T08:53:05.586Z,29.00
2018-07-04T08:54:08.848Z,29.10
2018-07-04T08:55:05.696Z,29.10
2018-07-04T08:56:10.385Z,29.20
2018-07-04T08:57:10.669Z,29.20
2018-07-04T08:58:05.922Z,29.20
2018-07-04T08:59:07.588Z,29.30
2018-07-04T09:00:05.259Z,29.30
2018-07-04T09:01:05.753Z,29.30
2018-07-04T09:02:05.229Z,29.40
2018-07-04T09:03:05.533Z,29.40
2018-07-04T09:04:05.845Z,29.50
2018-07-04T09:05:10.733Z,29.60
2018-07-04T09:06:05.181Z,29.60
2018-07-04T09:07:10.748Z,29.60
2018-07-04T09:08:05.736Z,29.80
2018-07-04T09:09:05.802Z,29.80
2018-07-04T09:10:08.433Z,29.90
2018-07-04T09:11:06.023Z,29.90
2018-07-04T09:12:07.925Z,30.00
2018-07-04T09:13:10.367Z,30.00
2018-07-04T09:14:05.676Z,30.10
2018-07-04T09:15:08.965Z,30.20
2018-07-04T09:16:08.231Z,30.20
2018-07-04T09:17:05.953Z,30.20
2018-07-04T09:18:05.589Z,30.30
2018-07-04T09:19:06.249Z,30.20
2018-07-04T09:20:08.637Z,30.30
2018-07-04T09:21:06.397Z,30.20
2018-07-04T09:22:10.904Z,30.30
2018-07-04T09:23:06.051Z,30.30
2018-07-04T09:24:05.749Z,30.40
2018-07-04T09:25:05.264Z,30.50
2018-07-04T09:26:05.937Z,30.60
2018-07-04T09:27:05.044Z,30.60
2018-07-04T09:28:06.345Z,30.60
2018-07-04T09:29:05.979Z,30.60
2018-07-04T09:30:05.808Z,30.60
2018-07-04T09:31:10.862Z,30.60
2018-07-04T09:32:05.590Z,30.50
2018-07-04T09:33:05.982Z,30.50
2018-07-04T09:34:08.029Z,30.50
2018-07-04T09:35:05.242Z,30.40
2018-07-04T09:36:06.519Z,30.40
2018-07-04T09:37:10.844Z,30.40
2018-07-04T09:38:08.893Z,30.30
2018-07-04T09:39:05.389Z,30.40
2018-07-04T09:40:06.124Z,30.40
2018-07-04T09:41:05.461Z,30.30
2018-07-04T09:42:05.550Z,30.30
2018-07-04T09:43:10.685Z,30.30
2018-07-04T09:44:05.731Z,30.30
2018-07-04T09:45:05.718Z,30.40
2018-07-04T09:46:06.069Z,30.40
2018-07-04T09:47:06.363Z,30.50
2018-07-04T09:48:05.652Z,30.50
2018-07-04T09:49:10.582Z,30.60
2018-07-04T09:50:05.910Z,30.60
2018-07-04T09:51:05.795Z,30.60
2018-07-04T09:52:08.424Z,30.70
2018-07-04T09:53:11.001Z,30.70
2018-07-04T09:54:07.849Z,30.90
2018-07-04T09:55:05.218Z,30.90
2018-07-04T09:56:05.366Z,31.00
2018-07-04T09:57:10.163Z,31.10
2018-07-04T09:58:06.659Z,31.00
2018-07-04T09:59:05.676Z,31.10
2018-07-04T10:00:05.098Z,31.20
2018-07-04T10:01:05.728Z,31.20
2018-07-04T10:02:05.723Z,31.30
2018-07-04T10:03:08.606Z,31.30
2018-07-04T10:04:10.976Z,31.30
2018-07-04T10:05:05.625Z,31.30
2018-07-04T10:06:05.315Z,31.30
2018-07-04T10:07:05.504Z,31.30
2018-07-04T10:08:05.520Z,31.30
2018-07-04T10:09:07.798Z,31.30
2018-07-04T10:10:05.157Z,31.30
2018-07-04T10:11:05.170Z,31.30
2018-07-04T10:12:05.182Z,31.30
2018-07-04T10:13:11.988Z,31.30
2018-07-04T10:14:08.183Z,31.40
2018-07-04T10:15:05.593Z,31.40
2018-07-04T10:16:05.428Z,31.50
2018-07-04T10:17:05.748Z,31.50
2018-07-04T10:18:10.606Z,31.60
2018-07-04T10:19:06.002Z,31.60
2018-07-04T10:20:05.516Z,31.60
2018-07-04T10:21:06.091Z,31.70
2018-07-04T10:22:13.253Z,31.70
2018-07-04T10:23:10.721Z,31.80
2018-07-04T10:24:05.591Z,31.80
2018-07-04T10:25:10.503Z,31.80
2018-07-04T10:26:05.554Z,31.80
2018-07-04T10:27:05.448Z,31.80
2018-07-04T10:28:08.374Z,31.80
2018-07-04T10:29:05.751Z,31.80
2018-07-04T10:30:06.046Z,31.80
2018-07-04T10:31:05.197Z,31.90
2018-07-04T10:32:05.292Z,31.80
2018-07-04T10:33:09.126Z,31.80
2018-07-04T10:34:05.488Z,31.80
2018-07-04T10:35:10.134Z,31.70
2018-07-04T10:36:10.501Z,31.70
2018-07-04T10:37:10.553Z,31.70
2018-07-04T10:38:08.337Z,31.80
2018-07-04T10:39:08.620Z,31.80
2018-07-04T10:40:05.920Z,31.80
2018-07-04T10:41:05.143Z,31.80
2018-07-04T10:42:07.946Z,31.90
2018-07-04T10:43:08.686Z,31.90
2018-07-04T10:44:10.126Z,31.90
2018-07-04T10:45:08.828Z,32.00
2018-07-04T10:46:11.565Z,32.00
2018-07-04T10:47:06.006Z,32.00
2018-07-04T10:48:05.566Z,32.00
2018-07-04T10:49:11.164Z,32.10
2018-07-04T10:50:05.468Z,32.10
2018-07-04T10:51:08.180Z,32.20
2018-07-04T10:52:05.547Z,32.10
2018-07-04T10:53:10.682Z,32.10
2018-07-04T10:54:08.945Z,32.10
2018-07-04T10:55:05.605Z,32.00
2018-07-04T10:56:05.094Z,32.10
2018-07-04T10:57:05.735Z,32.10
2018-07-04T10:58:10.861Z,32.10
2018-07-04T10:59:05.938Z,32.10
2018-07-04T11:00:05.283Z,32.20
2018-07-04T11:01:05.793Z,32.10
2018-07-04T11:02:05.681Z,32.20
2018-07-04T11:03:05.889Z,32.30
2018-07-04T11:04:10.498Z,32.30
2018-07-04T11:05:05.643Z,32.40
2018-07-04T11:06:05.656Z,32.40
2018-07-04T11:07:05.245Z,32.40
2018-07-04T11:08:05.290Z,32.50
2018-07-04T11:09:06.355Z,32.50
2018-07-04T11:10:05.731Z,32.50
2018-07-04T11:11:06.074Z,32.50
2018-07-04T11:12:10.357Z,32.60
2018-07-04T11:13:05.570Z,32.60
2018-07-04T11:14:05.156Z,32.60
2018-07-04T11:15:05.847Z,32.60
2018-07-04T11:16:06.142Z,32.70
2018-07-04T11:17:06.042Z,32.70
2018-07-04T11:18:11.003Z,32.60
2018-07-04T11:19:06.112Z,32.70
2018-07-04T11:20:05.530Z,32.70
2018-07-04T11:21:05.887Z,32.60
2018-07-04T11:22:05.264Z,32.60
2018-07-04T11:23:05.123Z,32.60
2018-07-04T11:24:06.102Z,32.50
2018-07-04T11:25:10.406Z,32.40
2018-07-04T11:26:05.475Z,32.40
2018-07-04T11:27:06.097Z,32.40
2018-07-04T11:28:05.549Z,32.30
2018-07-04T11:29:05.864Z,32.30
2018-07-04T11:30:05.758Z,32.20
2018-07-04T11:31:05.945Z,32.20
2018-07-04T11:32:05.480Z,32.30
2018-07-04T11:33:05.731Z,32.30
2018-07-04T11:34:06.027Z,32.30
2018-07-04T11:35:05.626Z,32.30
2018-07-04T11:36:08.478Z,32.40
2018-07-04T11:37:05.898Z,32.40
2018-07-04T11:38:10.384Z,32.50
2018-07-04T11:39:05.692Z,32.40
2018-07-04T11:40:05.568Z,32.50
2018-07-04T11:41:05.515Z,32.40
2018-07-04T11:42:05.794Z,32.40
2018-07-04T11:43:05.915Z,32.40
2018-07-04T11:44:08.740Z,32.30
2018-07-04T11:45:05.231Z,32.20
2018-07-04T11:46:05.317Z,32.20
2018-07-04T11:47:05.671Z,32.20
2018-07-04T11:48:06.391Z,32.20
2018-07-04T11:49:05.193Z,32.20
2018-07-04T11:50:05.139Z,32.20
2018-07-04T11:51:08.656Z,32.30
2018-07-04T11:52:06.063Z,32.30
2018-07-04T11:53:09.044Z,32.40
2018-07-04T11:54:05.557Z,32.30
2018-07-04T11:55:05.147Z,32.40
2018-07-04T11:56:05.659Z,32.40
2018-07-04T11:57:08.529Z,32.40
2018-07-04T11:58:05.981Z,32.40
2018-07-04T11:59:05.045Z,32.30
2018-07-04T12:00:05.344Z,32.20
2018-07-04T12:01:06.567Z,32.20
2018-07-04T12:02:05.757Z,32.20
2018-07-04T12:03:06.188Z,32.20
2018-07-04T12:04:08.431Z,32.00
2018-07-04T12:05:05.761Z,32.10
2018-07-04T12:06:10.203Z,32.00
2018-07-04T12:07:10.749Z,31.90
2018-07-04T12:08:10.211Z,31.90
2018-07-04T12:09:05.172Z,31.90
2018-07-04T12:10:05.588Z,31.90
2018-07-04T12:11:10.546Z,31.90
2018-07-04T12:12:05.994Z,31.90
2018-07-04T12:13:05.581Z,31.80
2018-07-04T12:14:05.710Z,31.80
2018-07-04T12:15:09.314Z,31.70
2018-07-04T12:16:05.793Z,31.60
2018-07-04T12:17:05.554Z,31.60
2018-07-04T12:18:08.355Z,31.60
2018-07-04T12:19:05.643Z,31.60
2018-07-04T12:20:05.831Z,31.60
2018-07-04T12:21:10.641Z,31.50
2018-07-04T12:22:10.815Z,31.50
2018-07-04T12:23:08.113Z,31.50
2018-07-04T12:24:08.153Z,31.50
2018-07-04T12:25:05.455Z,31.50
2018-07-04T12:26:05.477Z,31.50
2018-07-04T12:27:05.837Z,31.60
2018-07-04T12:28:05.872Z,31.60
2018-07-04T12:29:06.056Z,31.70
2018-07-04T12:30:06.014Z,31.70
2018-07-04T12:31:05.546Z,31.70
2018-07-04T12:32:06.252Z,31.90
2018-07-04T12:33:05.252Z,31.90
2018-07-04T12:34:10.328Z,31.90
2018-07-04T12:35:10.396Z,32.00
2018-07-04T12:36:10.574Z,32.10
2018-07-04T12:37:05.925Z,32.10
2018-07-04T12:38:05.330Z,32.10
2018-07-04T12:39:05.459Z,32.30
2018-07-04T12:40:10.416Z,32.30
2018-07-04T12:41:08.868Z,32.40
2018-07-04T12:42:05.477Z,32.30
2018-07-04T12:43:05.692Z,32.40
2018-07-04T12:44:05.535Z,32.30
2018-07-04T12:45:05.775Z,32.30
2018-07-04T12:46:05.612Z,32.30
2018-07-04T12:47:05.693Z,32.30
2018-07-04T12:48:05.620Z,32.20
2018-07-04T12:49:05.540Z,32.20
2018-07-04T12:50:05.526Z,32.20
2018-07-04T12:51:05.266Z,32.20
2018-07-04T12:52:05.331Z,32.10